Time;durP1;ratioP1;P1;durP2;ratioP2;P2;SDS_P1;SDS_P2;PMS_P1;PMS_P2;Temp;Humidity;BMP_temperature;BMP_pressure;BME280_temperature;BME280_humidity;BME280_pressure;Samples;Min_cycle;Max_cycle;Signal;HPM_P1;HPM_P2
2021/12/10 00:01:03;;;;;;;0.35;0.17;;;;;;;;;;5055959;28;20246;-69
2021/12/10 00:03:33;;;;;;;0.30;0.20;;;;;;;;;;5055557;28;20049;-68
2021/12/10 00:06:06;;;;;;;1.13;0.10;;;;;;;;;;5055831;28;20258;-69
2021/12/10 00:08:34;;;;;;;0.73;0.22;;;;;;;;;;5055634;28;20024;-68
2021/12/10 00:11:01;;;;;;;0.28;0.10;;;;;;;;;;5055711;28;20514;-69
2021/12/10 00:13:27;;;;;;;1.20;0.30;;;;;;;;;;5054230;28;20384;-68
2021/12/10 00:15:54;;;;;;;0.55;0.17;;;;;;;;;;5055648;28;20028;-68
2021/12/10 00:18:20;;;;;;;0.80;0.10;;;;;;;;;;5055497;28;20020;-68
2021/12/10 00:20:47;;;;;;;0.38;0.20;;;;;;;;;;5054089;28;20032;-68
2021/12/10 00:23:16;;;;;;;0.32;0.10;;;;;;;;;;5054203;28;20380;-69
2021/12/10 00:25:45;;;;;;;0.28;0.20;;;;;;;;;;5055419;28;20171;-69
2021/12/10 00:28:16;;;;;;;0.10;0.10;;;;;;;;;;5055428;28;20556;-69
2021/12/10 00:31:05;;;;;;;0.30;0.00;;;;;;;;;;5055138;28;20172;-69
2021/12/10 00:33:35;;;;;;;0.50;0.20;;;;;;;;;;5055072;28;20013;-68
2021/12/10 00:36:01;;;;;;;0.10;0.10;;;;;;;;;;5055321;28;20017;-70
2021/12/10 00:38:27;;;;;;;0.47;0.10;;;;;;;;;;5055044;28;20017;-70
2021/12/10 00:40:52;;;;;;;0.52;0.10;;;;;;;;;;5053932;28;20112;-70
2021/12/10 00:43:17;;;;;;;0.65;0.25;;;;;;;;;;5053632;28;20048;-69
2021/12/10 00:45:43;;;;;;;0.75;0.20;;;;;;;;;;5055004;28;20403;-67
2021/12/10 00:48:08;;;;;;;1.95;0.20;;;;;;;;;;5053716;28;20029;-68
2021/12/10 00:50:38;;;;;;;0.20;0.10;;;;;;;;;;5054720;28;20079;-69
2021/12/10 00:53:03;;;;;;;0.30;0.20;;;;;;;;;;5054957;28;20456;-70
2021/12/10 00:55:28;;;;;;;0.82;0.20;;;;;;;;;;5053446;28;20021;-69
2021/12/10 00:57:54;;;;;;;1.80;0.37;;;;;;;;;;5054887;28;20429;-69
2021/12/10 01:00:25;;;;;;;0.30;0.10;;;;;;;;;;5054695;28;20296;-69
2021/12/10 01:02:50;;;;;;;0.20;0.10;;;;;;;;;;5054941;28;20061;-68
2021/12/10 01:05:16;;;;;;;0.15;0.10;;;;;;;;;;5054626;28;20025;-68
2021/12/10 01:07:42;;;;;;;0.70;0.10;;;;;;;;;;5054556;28;20503;-69
2021/12/10 01:10:14;;;;;;;1.17;0.17;;;;;;;;;;5054528;28;20029;-69
2021/12/10 01:12:42;;;;;;;0.55;0.40;;;;;;;;;;5054311;28;20108;-68
2021/12/10 01:26:24;;;;;;;1.75;0.20;;;;;;;;;;5054612;28;20380;-68
2021/12/10 01:28:53;;;;;;;0.35;0.17;;;;;;;;;;5054266;28;20055;-68
2021/12/10 01:31:18;;;;;;;0.47;0.20;;;;;;;;;;5053896;28;20029;-68
2021/12/10 01:33:43;;;;;;;0.30;0.10;;;;;;;;;;5054536;28;20041;-69
2021/12/10 01:36:09;;;;;;;1.50;0.47;;;;;;;;;;5054168;28;20629;-69
2021/12/10 01:38:39;;;;;;;0.98;0.20;;;;;;;;;;5053820;28;20056;-69
2021/12/10 01:41:08;;;;;;;0.70;0.13;;;;;;;;;;5054086;28;20063;-69
2021/12/10 01:43:35;;;;;;;0.85;0.30;;;;;;;;;;5053798;28;20496;-69
2021/12/10 01:46:06;;;;;;;1.05;0.10;;;;;;;;;;5053926;28;20017;-68
2021/12/10 01:48:36;;;;;;;0.60;0.28;;;;;;;;;;5053708;28;20024;-69
2021/12/10 01:51:03;;;;;;;0.20;0.00;;;;;;;;;;5052794;28;20056;-68
2021/12/10 01:53:29;;;;;;;0.68;0.35;;;;;;;;;;5053622;28;20063;-69
2021/12/10 01:55:56;;;;;;;0.17;0.17;;;;;;;;;;5053801;28;20074;-69
2021/12/10 01:58:23;;;;;;;0.13;0.10;;;;;;;;;;5053555;28;20017;-68
2021/12/10 02:00:52;;;;;;;0.98;0.10;;;;;;;;;;5053895;28;20031;-69
2021/12/10 02:03:18;;;;;;;0.88;0.20;;;;;;;;;;5060613;23;20500;-68
2021/12/10 02:05:43;;;;;;;1.02;0.20;;;;;;;;;;5053489;28;20025;-68
2021/12/10 02:08:08;;;;;;;0.08;0.05;;;;;;;;;;5035382;28;20017;-68
2021/12/10 02:10:34;;;;;;;0.30;0.10;;;;;;;;;;5035304;28;20122;-68
2021/12/10 02:12:59;;;;;;;1.08;0.20;;;;;;;;;;5053458;28;20024;-69
2021/12/10 02:15:28;;;;;;;0.28;0.20;;;;;;;;;;5035736;28;20044;-68
2021/12/10 02:17:56;;;;;;;0.10;0.10;;;;;;;;;;5053320;28;20017;-68
2021/12/10 02:20:27;;;;;;;0.85;0.20;;;;;;;;;;5053120;28;20021;-68
2021/12/10 02:22:53;;;;;;;0.77;0.40;;;;;;;;;;5053198;28;20070;-68
2021/12/10 02:25:21;;;;;;;0.32;0.10;;;;;;;;;;5035189;28;20025;-68
2021/12/10 02:27:46;;;;;;;0.20;0.08;;;;;;;;;;5053150;28;20021;-68
2021/12/10 02:30:12;;;;;;;0.43;0.20;;;;;;;;;;5053024;28;20499;-67
2021/12/10 02:32:37;;;;;;;0.50;0.10;;;;;;;;;;5052803;28;20246;-67
2021/12/10 02:35:04;;;;;;;0.88;0.10;;;;;;;;;;5053043;28;20013;-68
2021/12/10 02:37:29;;;;;;;0.10;0.10;;;;;;;;;;5052853;28;20029;-68
2021/12/10 02:39:54;;;;;;;0.45;0.15;;;;;;;;;;5052932;28;20035;-69
2021/12/10 02:42:19;;;;;;;1.40;0.10;;;;;;;;;;5052766;28;20115;-69
2021/12/10 02:44:45;;;;;;;0.67;0.10;;;;;;;;;;5052675;28;20246;-69
2021/12/10 02:47:10;;;;;;;1.73;0.30;;;;;;;;;;5052799;28;20605;-67
2021/12/10 02:49:35;;;;;;;0.63;0.30;;;;;;;;;;5052566;28;20017;-67
2021/12/10 02:52:02;;;;;;;0.75;0.20;;;;;;;;;;5052737;28;20332;-67
2021/12/10 02:54:36;;;;;;;0.20;0.10;;;;;;;;;;5052484;28;20024;-69
2021/12/10 02:57:06;;;;;;;0.28;0.10;;;;;;;;;;5052708;28;20009;-68
2021/12/10 02:59:31;;;;;;;0.38;0.10;;;;;;;;;;5052476;28;20049;-70
2021/12/10 03:01:58;;;;;;;0.28;0.10;;;;;;;;;;5052451;28;20122;-69
2021/12/10 03:04:23;;;;;;;1.23;0.40;;;;;;;;;;5052362;28;20025;-69
2021/12/10 03:06:51;;;;;;;0.53;0.33;;;;;;;;;;5052437;28;20021;-69
2021/12/10 03:09:17;;;;;;;0.50;0.10;;;;;;;;;;5052340;28;20582;-68
2021/12/10 03:11:46;;;;;;;1.17;0.30;;;;;;;;;;5034303;28;20035;-69
2021/12/10 03:14:13;;;;;;;0.80;0.20;;;;;;;;;;5052466;28;20483;-69
2021/12/10 03:16:39;;;;;;;0.50;0.10;;;;;;;;;;5052438;28;20021;-70
2021/12/10 03:19:05;;;;;;;0.20;0.08;;;;;;;;;;5051555;28;20033;-70
2021/12/10 03:21:30;;;;;;;0.20;0.10;;;;;;;;;;5052126;28;20372;-69
2021/12/10 03:23:55;;;;;;;0.22;0.10;;;;;;;;;;5052415;28;20051;-69
2021/12/10 03:26:21;;;;;;;0.82;0.22;;;;;;;;;;5034246;28;20056;-68
2021/12/10 03:28:47;;;;;;;1.00;0.03;;;;;;;;;;5052189;28;20024;-69
2021/12/10 03:31:13;;;;;;;0.15;0.10;;;;;;;;;;5052082;28;20057;-68
2021/12/10 03:33:39;;;;;;;0.32;0.10;;;;;;;;;;5034525;28;20372;-69
2021/12/10 03:36:04;;;;;;;0.30;0.10;;;;;;;;;;5052260;28;20024;-70
2021/12/10 03:38:30;;;;;;;0.82;0.13;;;;;;;;;;5034056;28;20479;-70
2021/12/10 03:40:55;;;;;;;0.20;0.00;;;;;;;;;;5052448;28;20019;-70
2021/12/10 03:43:21;;;;;;;0.25;0.20;;;;;;;;;;5051881;28;20028;-69
2021/12/10 03:45:49;;;;;;;0.70;0.10;;;;;;;;;;5052173;28;20024;-69
2021/12/10 03:48:16;;;;;;;0.50;0.10;;;;;;;;;;5052052;28;20021;-70
2021/12/10 03:50:42;;;;;;;0.50;0.10;;;;;;;;;;5052209;28;20017;-69
2021/12/10 03:53:07;;;;;;;0.55;0.10;;;;;;;;;;5052029;28;20021;-69
2021/12/10 03:55:33;;;;;;;0.40;0.10;;;;;;;;;;5051888;28;20063;-68
2021/12/10 03:57:59;;;;;;;0.40;0.08;;;;;;;;;;5052012;28;20096;-69
2021/12/10 04:00:27;;;;;;;0.30;0.17;;;;;;;;;;5051815;28;20115;-69
2021/12/10 04:02:52;;;;;;;0.82;0.10;;;;;;;;;;5051754;28;20045;-69
2021/12/10 04:05:17;;;;;;;0.68;0.17;;;;;;;;;;5034102;28;20013;-70
2021/12/10 04:07:43;;;;;;;0.40;0.20;;;;;;;;;;5051916;28;20041;-70
2021/12/10 04:10:10;;;;;;;0.52;0.20;;;;;;;;;;5051738;28;20104;-70
2021/12/10 04:12:35;;;;;;;0.10;0.05;;;;;;;;;;5051644;28;20045;-70
2021/12/10 04:15:00;;;;;;;0.20;0.10;;;;;;;;;;5051822;28;20060;-68
2021/12/10 04:17:26;;;;;;;0.85;0.30;;;;;;;;;;5051636;28;20021;-68
2021/12/10 04:19:51;;;;;;;0.30;0.00;;;;;;;;;;5051847;28;20072;-68
2021/12/10 04:22:18;;;;;;;1.08;0.43;;;;;;;;;;5051652;28;20017;-69
2021/12/10 04:24:43;;;;;;;0.55;0.20;;;;;;;;;;5051710;28;20036;-69
2021/12/10 04:27:10;;;;;;;1.17;0.10;;;;;;;;;;5051721;28;20021;-70
2021/12/10 04:29:35;;;;;;;0.32;0.10;;;;;;;;;;5052455;28;20036;-69
2021/12/10 04:32:01;;;;;;;0.20;0.10;;;;;;;;;;5055353;28;20017;-69
2021/12/10 04:34:26;;;;;;;0.22;0.10;;;;;;;;;;5055134;28;20353;-68
2021/12/10 04:36:53;;;;;;;0.28;0.00;;;;;;;;;;5055245;28;20044;-69
2021/12/10 04:39:18;;;;;;;0.10;0.10;;;;;;;;;;5055192;28;20092;-69
2021/12/10 04:41:43;;;;;;;0.25;0.10;;;;;;;;;;5055474;28;20163;-69
2021/12/10 04:44:09;;;;;;;0.20;0.10;;;;;;;;;;5055087;28;20017;-70
2021/12/10 04:46:34;;;;;;;0.22;0.15;;;;;;;;;;5054874;28;20024;-70
2021/12/10 04:49:03;;;;;;;0.85;0.10;;;;;;;;;;5055081;28;20017;-69
2021/12/10 04:51:30;;;;;;;0.77;0.10;;;;;;;;;;5054826;28;20025;-67
2021/12/10 04:53:56;;;;;;;0.82;0.20;;;;;;;;;;5054985;28;20419;-68
2021/12/10 04:56:22;;;;;;;1.40;0.10;;;;;;;;;;5054424;28;20017;-69
2021/12/10 04:58:48;;;;;;;0.85;0.20;;;;;;;;;;5054787;28;20024;-69
2021/12/10 05:01:13;;;;;;;0.28;0.00;;;;;;;;;;5054830;28;20024;-68
2021/12/10 05:03:39;;;;;;;0.70;0.10;;;;;;;;;;5054528;28;20132;-68
2021/12/10 05:06:04;;;;;;;1.35;0.10;;;;;;;;;;5054740;28;20040;-68
2021/12/10 05:08:31;;;;;;;1.40;0.30;;;;;;;;;;5054599;28;20024;-69
2021/12/10 05:10:56;;;;;;;0.65;0.20;;;;;;;;;;5054215;28;20025;-68
2021/12/10 05:13:21;;;;;;;0.88;0.20;;;;;;;;;;5054453;28;20025;-68
2021/12/10 05:15:53;;;;;;;0.88;0.20;;;;;;;;;;5054568;28;20096;-67
2021/12/10 05:18:19;;;;;;;0.68;0.30;;;;;;;;;;5054331;28;20060;-68
2021/12/10 05:20:48;;;;;;;0.65;0.10;;;;;;;;;;5054353;28;20067;-68
2021/12/10 05:23:14;;;;;;;0.10;0.00;;;;;;;;;;5054385;28;20017;-67
2021/12/10 05:25:39;;;;;;;1.50;0.10;;;;;;;;;;5054324;28;20024;-68
2021/12/10 05:28:05;;;;;;;0.38;0.10;;;;;;;;;;5054383;28;20021;-68
2021/12/10 05:30:30;;;;;;;0.40;0.05;;;;;;;;;;5053930;28;20368;-69
2021/12/10 05:32:56;;;;;;;0.25;0.22;;;;;;;;;;5054578;28;20017;-68
2021/12/10 05:35:21;;;;;;;0.03;0.00;;;;;;;;;;5054042;28;20104;-68
2021/12/10 05:37:46;;;;;;;0.93;0.10;;;;;;;;;;5054167;28;20133;-68
2021/12/10 05:40:13;;;;;;;0.10;0.00;;;;;;;;;;5054097;28;20151;-68
2021/12/10 05:42:39;;;;;;;0.70;0.17;;;;;;;;;;5053484;28;20025;-68
2021/12/10 05:45:05;;;;;;;0.55;0.10;;;;;;;;;;5054151;28;20112;-69
2021/12/10 05:47:30;;;;;;;1.20;0.30;;;;;;;;;;5053687;28;20120;-69
2021/12/10 05:49:56;;;;;;;0.20;0.00;;;;;;;;;;5053901;28;20029;-67
2021/12/10 05:52:21;;;;;;;2.10;0.30;;;;;;;;;;5035859;28;20021;-68
2021/12/10 05:54:46;;;;;;;1.45;0.10;;;;;;;;;;5053730;28;20256;-68
2021/12/10 05:57:12;;;;;;;0.45;0.20;;;;;;;;;;5053786;28;20427;-69
2021/12/10 05:59:37;;;;;;;0.32;0.10;;;;;;;;;;5053883;28;20025;-69
2021/12/10 06:02:03;;;;;;;0.70;0.10;;;;;;;;;;5053550;28;20068;-69
2021/12/10 06:04:29;;;;;;;0.10;0.10;;;;;;;;;;5053436;28;20017;-69
2021/12/10 06:06:55;;;;;;;0.90;0.10;;;;;;;;;;5053818;28;20021;-68
2021/12/10 06:09:21;;;;;;;1.63;0.60;;;;;;;;;;5053629;28;20365;-68
2021/12/10 06:11:46;;;;;;;0.25;0.10;;;;;;;;;;5053757;28;20042;-68
2021/12/10 06:14:11;;;;;;;1.27;0.20;;;;;;;;;;5053442;28;20021;-69
2021/12/10 06:16:36;;;;;;;1.13;0.20;;;;;;;;;;5053133;28;20328;-69
2021/12/10 06:19:02;;;;;;;0.38;0.10;;;;;;;;;;5035510;28;20112;-69
2021/12/10 06:21:28;;;;;;;0.98;0.15;;;;;;;;;;5035200;28;20372;-69
2021/12/10 06:23:53;;;;;;;0.75;0.20;;;;;;;;;;5053276;28;20021;-69
2021/12/10 06:26:19;;;;;;;1.70;0.20;;;;;;;;;;5052953;28;20043;-68
2021/12/10 06:28:45;;;;;;;0.53;0.20;;;;;;;;;;5053075;28;20464;-68
2021/12/10 06:31:12;;;;;;;0.10;0.00;;;;;;;;;;5053023;28;20278;-68
2021/12/10 06:33:37;;;;;;;0.10;0.10;;;;;;;;;;5052922;28;20021;-68
2021/12/10 06:36:03;;;;;;;0.30;0.03;;;;;;;;;;5053074;28;20024;-68
2021/12/10 06:38:29;;;;;;;0.82;0.20;;;;;;;;;;5052804;28;20246;-68
2021/12/10 06:40:54;;;;;;;0.60;0.10;;;;;;;;;;5052959;28;20109;-69
2021/12/10 06:43:20;;;;;;;1.13;0.22;;;;;;;;;;5052707;28;20443;-69
2021/12/10 06:45:46;;;;;;;1.65;0.08;;;;;;;;;;5052825;28;20017;-69
2021/12/10 06:48:11;;;;;;;0.15;0.10;;;;;;;;;;5052821;28;20024;-68
2021/12/10 06:50:42;;;;;;;1.48;0.20;;;;;;;;;;5052490;28;20029;-67
2021/12/10 06:53:08;;;;;;;0.20;0.10;;;;;;;;;;5052155;28;20105;-68
2021/12/10 06:55:33;;;;;;;0.22;0.10;;;;;;;;;;5052385;28;20052;-69
2021/12/10 06:57:59;;;;;;;0.82;0.00;;;;;;;;;;5052740;28;20138;-69
2021/12/10 07:00:27;;;;;;;0.40;0.10;;;;;;;;;;5052471;28;20104;-69
2021/12/10 07:02:52;;;;;;;0.40;0.10;;;;;;;;;;5052357;28;20381;-68
2021/12/10 07:05:18;;;;;;;1.02;0.10;;;;;;;;;;5052444;28;20020;-67
2021/12/10 07:07:44;;;;;;;0.60;0.10;;;;;;;;;;5052450;28;20392;-67
2021/12/10 07:10:10;;;;;;;0.30;0.10;;;;;;;;;;5052384;28;20346;-67
2021/12/10 07:12:35;;;;;;;0.40;0.10;;;;;;;;;;5052139;28;20025;-67
2021/12/10 07:15:02;;;;;;;0.57;0.20;;;;;;;;;;5052447;28;20032;-68
2021/12/10 07:17:27;;;;;;;0.10;0.00;;;;;;;;;;5034239;28;20368;-68
2021/12/10 07:19:52;;;;;;;1.15;0.17;;;;;;;;;;5034423;28;20023;-68
2021/12/10 07:22:18;;;;;;;0.28;0.08;;;;;;;;;;5052258;28;20373;-68
2021/12/10 07:24:43;;;;;;;0.38;0.10;;;;;;;;;;5052166;28;20074;-68
2021/12/10 07:27:11;;;;;;;0.40;0.07;;;;;;;;;;5052317;28;20112;-68
2021/12/10 07:29:37;;;;;;;0.20;0.08;;;;;;;;;;5051974;28;20032;-68
2021/12/10 07:32:02;;;;;;;0.95;0.20;;;;;;;;;;5034342;28;20039;-69
2021/12/10 07:34:27;;;;;;;0.13;0.13;;;;;;;;;;5051973;28;20021;-69
2021/12/10 07:36:52;;;;;;;0.40;0.10;;;;;;;;;;5052102;28;20052;-70
2021/12/10 07:39:17;;;;;;;0.67;0.10;;;;;;;;;;5052040;28;20246;-69
2021/12/10 07:41:43;;;;;;;0.90;0.10;;;;;;;;;;5052039;28;20621;-68
2021/12/10 07:44:09;;;;;;;0.27;0.20;;;;;;;;;;5052011;28;20013;-68
2021/12/10 07:46:34;;;;;;;0.28;0.20;;;;;;;;;;5033871;28;20614;-68
2021/12/10 07:49:00;;;;;;;0.20;0.10;;;;;;;;;;5052100;28;20025;-69
2021/12/10 07:51:31;;;;;;;0.10;0.00;;;;;;;;;;5051775;28;20402;-69
2021/12/10 07:53:57;;;;;;;0.40;0.10;;;;;;;;;;5052017;28;20029;-69
2021/12/10 07:56:24;;;;;;;1.42;0.30;;;;;;;;;;5051789;28;20013;-68
2021/12/10 07:58:49;;;;;;;0.85;0.30;;;;;;;;;;5051898;28;20028;-69
2021/12/10 08:01:16;;;;;;;0.32;0.10;;;;;;;;;;5033979;28;20025;-67
2021/12/10 08:03:42;;;;;;;0.13;0.00;;;;;;;;;;5051725;28;20053;-68
2021/12/10 08:06:08;;;;;;;0.47;0.20;;;;;;;;;;5036835;28;20028;-68
2021/12/10 08:08:33;;;;;;;0.25;0.15;;;;;;;;;;5055531;28;20027;-68
2021/12/10 08:10:58;;;;;;;0.93;0.30;;;;;;;;;;5055804;28;20031;-69
2021/12/10 08:13:23;;;;;;;0.40;0.17;;;;;;;;;;5055852;28;20249;-68
2021/12/10 08:15:49;;;;;;;0.13;0.10;;;;;;;;;;5055739;28;20020;-68
2021/12/10 08:18:15;;;;;;;0.08;0.08;;;;;;;;;;5055590;28;20048;-67
2021/12/10 08:20:40;;;;;;;1.45;0.00;;;;;;;;;;5055427;28;20056;-68
2021/12/10 08:23:05;;;;;;;1.23;0.30;;;;;;;;;;5055840;28;20025;-68
2021/12/10 08:25:31;;;;;;;0.00;0.00;;;;;;;;;;5055243;28;20289;-68
2021/12/10 08:27:56;;;;;;;0.40;0.10;;;;;;;;;;5055853;28;20365;-69
2021/12/10 08:30:23;;;;;;;0.08;0.08;;;;;;;;;;5037177;28;20494;-70
2021/12/10 08:32:49;;;;;;;0.10;0.00;;;;;;;;;;5055583;28;20017;-70
2021/12/10 08:35:15;;;;;;;0.40;0.10;;;;;;;;;;5055301;28;20055;-69
2021/12/10 08:37:41;;;;;;;0.20;0.10;;;;;;;;;;5055224;28;20057;-69
2021/12/10 08:40:08;;;;;;;1.38;0.30;;;;;;;;;;5055294;28;20448;-69
2021/12/10 08:42:33;;;;;;;1.23;0.13;;;;;;;;;;5054833;28;20395;-68
2021/12/10 08:44:58;;;;;;;1.10;0.43;;;;;;;;;;5055278;28;20479;-68
2021/12/10 08:47:24;;;;;;;1.53;0.10;;;;;;;;;;5054965;28;20029;-69
2021/12/10 08:49:49;;;;;;;0.65;0.00;;;;;;;;;;5055100;28;20364;-70
2021/12/10 08:52:18;;;;;;;0.10;0.00;;;;;;;;;;5055027;28;20025;-69
2021/12/10 08:54:44;;;;;;;1.55;0.15;;;;;;;;;;5054538;28;20253;-68
2021/12/10 08:57:09;;;;;;;0.68;0.10;;;;;;;;;;5054957;28;20017;-67
2021/12/10 08:59:36;;;;;;;0.28;0.10;;;;;;;;;;5037143;28;20523;-68
2021/12/10 09:02:03;;;;;;;0.77;0.10;;;;;;;;;;5054761;28;20045;-69
2021/12/10 09:04:29;;;;;;;0.10;0.08;;;;;;;;;;5054574;28;20016;-69
2021/12/10 09:06:56;;;;;;;0.85;0.10;;;;;;;;;;5054682;28;20043;-69
2021/12/10 09:09:23;;;;;;;0.10;0.10;;;;;;;;;;5054334;28;20039;-68
2021/12/10 09:11:50;;;;;;;0.52;0.28;;;;;;;;;;5054540;28;20399;-67
2021/12/10 09:14:16;;;;;;;1.20;0.22;;;;;;;;;;5054557;28;20455;-67
2021/12/10 09:16:41;;;;;;;0.77;0.10;;;;;;;;;;5053560;28;20434;-68
2021/12/10 09:19:09;;;;;;;0.85;0.10;;;;;;;;;;5054508;28;20519;-69
2021/12/10 09:21:34;;;;;;;0.00;0.00;;;;;;;;;;5036464;28;20017;-68
2021/12/10 09:24:04;;;;;;;0.20;0.17;;;;;;;;;;5054502;28;20380;-68
2021/12/10 09:26:30;;;;;;;0.68;0.20;;;;;;;;;;5054202;28;20025;-68
2021/12/10 09:28:56;;;;;;;0.55;0.10;;;;;;;;;;5054340;28;20028;-68
2021/12/10 09:31:24;;;;;;;0.63;0.17;;;;;;;;;;5053424;28;20028;-67
2021/12/10 09:33:50;;;;;;;0.10;0.10;;;;;;;;;;5054318;28;20403;-68
2021/12/10 09:36:15;;;;;;;0.10;0.10;;;;;;;;;;5054125;28;20017;-68
2021/12/10 09:38:40;;;;;;;0.67;0.10;;;;;;;;;;5053978;28;20024;-69
2021/12/10 09:41:06;;;;;;;0.40;0.10;;;;;;;;;;5053955;28;20598;-68
2021/12/10 09:43:32;;;;;;;0.20;0.08;;;;;;;;;;5035943;28;20246;-69
2021/12/10 09:45:59;;;;;;;0.55;0.08;;;;;;;;;;5054067;28;20021;-68
2021/12/10 09:48:24;;;;;;;0.77;0.20;;;;;;;;;;5053765;28;20020;-69
2021/12/10 09:50:55;;;;;;;1.17;0.15;;;;;;;;;;5053869;28;20380;-68
2021/12/10 09:53:21;;;;;;;0.43;0.10;;;;;;;;;;5053747;28;20021;-68
2021/12/10 09:55:46;;;;;;;0.45;0.17;;;;;;;;;;5054021;28;20021;-69
2021/12/10 09:58:12;;;;;;;1.02;0.10;;;;;;;;;;5053730;28;20108;-68
2021/12/10 10:00:40;;;;;;;0.35;0.10;;;;;;;;;;5053507;28;20071;-68
2021/12/10 10:03:07;;;;;;;1.13;0.40;;;;;;;;;;5053489;28;20056;-68
2021/12/10 10:05:33;;;;;;;0.38;0.10;;;;;;;;;;5035566;28;20032;-69
2021/12/10 10:08:00;;;;;;;0.38;0.20;;;;;;;;;;5035723;28;20017;-69
2021/12/10 10:10:26;;;;;;;0.52;0.20;;;;;;;;;;5053316;28;20033;-69
2021/12/10 10:12:53;;;;;;;0.38;0.20;;;;;;;;;;5053476;28;20028;-69
2021/12/10 10:15:21;;;;;;;0.68;0.20;;;;;;;;;;5053378;28;20024;-69
2021/12/10 10:17:46;;;;;;;0.25;0.10;;;;;;;;;;5053369;28;20027;-68
2021/12/10 10:20:13;;;;;;;0.60;0.10;;;;;;;;;;5053354;28;20021;-68
2021/12/10 10:22:38;;;;;;;0.30;0.10;;;;;;;;;;5053191;28;20151;-68
2021/12/10 10:25:07;;;;;;;0.13;0.10;;;;;;;;;;5053338;28;20050;-69
2021/12/10 10:27:34;;;;;;;0.60;0.10;;;;;;;;;;5053009;28;20062;-69
2021/12/10 10:30:02;;;;;;;0.10;0.10;;;;;;;;;;5053139;28;20017;-69
2021/12/10 10:32:29;;;;;;;0.25;0.10;;;;;;;;;;5052953;28;20476;-68
2021/12/10 10:35:01;;;;;;;1.45;0.10;;;;;;;;;;5053098;28;20013;-67
2021/12/10 10:37:26;;;;;;;0.15;0.10;;;;;;;;;;5052842;28;20495;-68
2021/12/10 10:39:52;;;;;;;0.80;0.10;;;;;;;;;;5053106;28;20021;-69
2021/12/10 10:42:20;;;;;;;0.73;0.20;;;;;;;;;;5052867;28;20459;-69
2021/12/10 10:44:46;;;;;;;0.82;0.15;;;;;;;;;;5052809;28;20045;-69
2021/12/10 10:47:11;;;;;;;0.43;0.17;;;;;;;;;;5051670;28;20432;-69
2021/12/10 10:49:39;;;;;;;0.35;0.10;;;;;;;;;;5052285;28;20032;-68
2021/12/10 10:52:39;;;;;;;0.20;0.10;;;;;;;;;;5034172;28;20013;-67
2021/12/10 10:55:10;;;;;;;0.20;0.10;;;;;;;;;;4989402;28;20052;-69
2021/12/10 10:57:37;;;;;;;0.65;0.00;;;;;;;;;;4994105;28;20046;-69
2021/12/10 11:00:14;;;;;;;1.30;0.22;;;;;;;;;;4989756;28;20029;-68
2021/12/10 11:02:49;;;;;;;0.35;0.10;;;;;;;;;;4988958;28;20045;-68
2021/12/10 11:05:14;;;;;;;0.85;0.20;;;;;;;;;;4989507;28;20057;-67
2021/12/10 11:07:47;;;;;;;0.20;0.00;;;;;;;;;;4988764;28;20022;-67
2021/12/10 11:10:12;;;;;;;0.47;0.10;;;;;;;;;;4989651;28;20034;-68
2021/12/10 11:12:39;;;;;;;0.03;0.00;;;;;;;;;;4988332;28;20022;-69
2021/12/10 11:15:10;;;;;;;0.10;0.00;;;;;;;;;;4989524;28;20022;-68
2021/12/10 11:17:39;;;;;;;0.50;0.17;;;;;;;;;;4989742;28;20022;-68
2021/12/10 11:20:22;;;;;;;0.90;0.17;;;;;;;;;;4989476;28;20030;-68
2021/12/10 11:22:49;;;;;;;0.10;0.00;;;;;;;;;;4989555;28;20039;-68
2021/12/10 11:25:18;;;;;;;0.57;0.20;;;;;;;;;;4973528;28;20466;-68
2021/12/10 11:27:44;;;;;;;1.40;0.28;;;;;;;;;;4989442;28;20355;-68
2021/12/10 11:30:11;;;;;;;0.50;0.17;;;;;;;;;;5032523;28;20051;-68
2021/12/10 11:32:41;;;;;;;0.35;0.10;;;;;;;;;;5058104;28;20017;-68
2021/12/10 11:35:09;;;;;;;0.68;0.10;;;;;;;;;;5072224;28;20025;-69
2021/12/10 11:37:38;;;;;;;0.40;0.10;;;;;;;;;;5066290;28;20024;-69
2021/12/10 11:40:04;;;;;;;0.00;0.00;;;;;;;;;;5073369;28;20059;-68
2021/12/10 11:42:44;;;;;;;0.22;0.00;;;;;;;;;;5073912;28;20108;-67
2021/12/10 11:45:32;;;;;;;0.10;0.10;;;;;;;;;;5056195;28;20025;-67
2021/12/10 11:48:09;;;;;;;0.93;0.22;;;;;;;;;;5047277;28;20063;-68
2021/12/10 11:50:36;;;;;;;2.15;0.20;;;;;;;;;;5035374;28;20469;-68
2021/12/10 11:53:07;;;;;;;0.45;0.10;;;;;;;;;;5035271;28;20382;-68
2021/12/10 11:55:35;;;;;;;0.57;0.10;;;;;;;;;;5035456;28;20029;-68
2021/12/10 11:58:00;;;;;;;0.40;0.10;;;;;;;;;;5035282;28;20040;-69
2021/12/10 12:00:28;;;;;;;0.52;0.10;;;;;;;;;;5034902;28;20057;-69
2021/12/10 12:02:58;;;;;;;0.63;0.10;;;;;;;;;;5034732;28;20541;-69
2021/12/10 12:05:25;;;;;;;0.47;0.00;;;;;;;;;;5035511;28;20021;-68
2021/12/10 12:07:54;;;;;;;0.38;0.13;;;;;;;;;;5035487;28;20523;-67
2021/12/10 12:10:28;;;;;;;0.30;0.10;;;;;;;;;;5035592;28;20358;-68
2021/12/10 12:12:55;;;;;;;0.20;0.00;;;;;;;;;;5035694;28;20462;-68
2021/12/10 12:15:34;;;;;;;0.15;0.10;;;;;;;;;;5035593;28;20324;-68
2021/12/10 12:17:59;;;;;;;0.73;0.10;;;;;;;;;;5035717;28;20060;-69
2021/12/10 12:20:40;;;;;;;0.10;0.10;;;;;;;;;;5035723;28;20045;-69
2021/12/10 12:25:59;;;;;;;0.32;0.03;;;;;;;;;;5052308;28;20150;-69
2021/12/10 12:28:25;;;;;;;0.57;0.20;;;;;;;;;;5055062;28;20025;-68
2021/12/10 12:31:19;;;;;;;0.50;0.10;;;;;;;;;;5054979;28;20483;-68
2021/12/10 12:33:58;;;;;;;0.30;0.00;;;;;;;;;;4973717;28;20039;-68
2021/12/10 12:36:54;;;;;;;1.20;0.43;;;;;;;;;;4973744;28;20027;-68
2021/12/10 12:39:29;;;;;;;0.88;0.13;;;;;;;;;;4973805;28;20570;-68
2021/12/10 12:41:54;;;;;;;0.55;0.00;;;;;;;;;;4973743;28;20034;-67
2021/12/10 12:44:25;;;;;;;0.80;0.15;;;;;;;;;;4973358;28;20042;-68
2021/12/10 12:47:01;;;;;;;0.20;0.10;;;;;;;;;;4973708;28;20030;-68
2021/12/10 12:49:31;;;;;;;0.32;0.10;;;;;;;;;;4973443;28;20054;-68
2021/12/10 12:52:05;;;;;;;0.10;0.08;;;;;;;;;;4972095;28;20047;-68
2021/12/10 12:54:30;;;;;;;0.22;0.10;;;;;;;;;;4974681;28;20023;-68
2021/12/10 12:56:56;;;;;;;0.15;0.10;;;;;;;;;;4992858;28;20022;-68
2021/12/10 12:59:22;;;;;;;1.30;0.10;;;;;;;;;;4992806;28;20521;-68
2021/12/10 13:01:50;;;;;;;0.22;0.10;;;;;;;;;;4992650;28;20481;-67
2021/12/10 13:04:19;;;;;;;1.40;0.10;;;;;;;;;;4992783;28;20046;-68
2021/12/10 13:06:52;;;;;;;0.20;0.13;;;;;;;;;;4992569;28;20124;-69
2021/12/10 13:09:17;;;;;;;0.45;0.00;;;;;;;;;;5001755;28;20289;-68
2021/12/10 13:11:56;;;;;;;0.10;0.00;;;;;;;;;;5054087;28;20029;-68
2021/12/10 13:14:25;;;;;;;1.55;0.10;;;;;;;;;;5054281;28;20069;-69
2021/12/10 13:16:52;;;;;;;0.30;0.10;;;;;;;;;;5054206;28;20021;-67
2021/12/10 13:19:20;;;;;;;0.40;0.10;;;;;;;;;;5055690;28;20392;-68
2021/12/10 13:21:47;;;;;;;0.70;0.00;;;;;;;;;;5074150;28;20024;-67
2021/12/10 13:24:13;;;;;;;0.55;0.00;;;;;;;;;;5065223;28;20071;-68
2021/12/10 13:26:39;;;;;;;0.38;0.10;;;;;;;;;;5036081;28;20044;-68
2021/12/10 13:29:04;;;;;;;0.55;0.20;;;;;;;;;;5035467;28;20460;-68
2021/12/10 13:31:29;;;;;;;0.80;0.10;;;;;;;;;;5029359;28;20032;-68
2021/12/10 13:33:54;;;;;;;0.57;0.00;;;;;;;;;;5053633;28;20028;-68
2021/12/10 13:36:20;;;;;;;0.80;0.20;;;;;;;;;;5053724;28;20632;-68
2021/12/10 13:38:48;;;;;;;1.30;0.35;;;;;;;;;;5053161;28;20400;-67
2021/12/10 13:41:13;;;;;;;0.32;0.10;;;;;;;;;;5053684;28;20376;-68
2021/12/10 13:43:40;;;;;;;0.38;0.10;;;;;;;;;;5053209;28;20021;-68
2021/12/10 13:46:10;;;;;;;0.43;0.10;;;;;;;;;;5035765;28;20029;-68
2021/12/10 13:48:48;;;;;;;0.20;0.10;;;;;;;;;;5053518;28;20029;-68
2021/12/10 13:51:15;;;;;;;0.38;0.05;;;;;;;;;;5053670;28;20021;-69
2021/12/10 13:53:41;;;;;;;0.20;0.10;;;;;;;;;;5053609;28;20369;-68
2021/12/10 13:56:09;;;;;;;0.47;0.22;;;;;;;;;;5053642;28;20028;-68
2021/12/10 13:58:38;;;;;;;0.57;0.03;;;;;;;;;;5053310;28;20020;-68
2021/12/10 14:01:06;;;;;;;0.30;0.08;;;;;;;;;;5053511;28;20376;-68
2021/12/10 14:03:41;;;;;;;0.98;0.10;;;;;;;;;;5030975;28;20059;-67
2021/12/10 14:06:06;;;;;;;;;;;;;;;;;;5031864;28;20175;-67
2021/12/10 14:08:31;;;;;;;1.38;0.10;;;;;;;;;;5033143;28;19991;-67
2021/12/10 14:11:11;;;;;;;0.28;0.00;;;;;;;;;;5033146;28;20108;-68
2021/12/10 14:13:36;;;;;;;1.45;0.10;;;;;;;;;;5031683;28;20507;-67
2021/12/10 14:16:05;;;;;;;0.93;0.10;;;;;;;;;;5033154;28;20029;-67
2021/12/10 14:18:34;;;;;;;0.50;0.30;;;;;;;;;;5033095;28;20274;-68
2021/12/10 14:21:01;;;;;;;0.45;0.10;;;;;;;;;;5032301;28;20025;-68
2021/12/10 14:23:32;;;;;;;0.52;0.20;;;;;;;;;;5033080;28;20029;-68
2021/12/10 14:25:59;;;;;;;0.22;0.20;;;;;;;;;;5033038;28;20025;-69
2021/12/10 14:28:35;;;;;;;1.70;0.10;;;;;;;;;;5032930;28;20476;-69
2021/12/10 14:31:00;;;;;;;0.65;0.17;;;;;;;;;;5032942;28;20117;-67
2021/12/10 14:33:31;;;;;;;0.38;0.00;;;;;;;;;;5032837;28;20104;-67
2021/12/10 14:36:00;;;;;;;0.43;0.03;;;;;;;;;;5032866;28;20013;-67
2021/12/10 14:38:37;;;;;;;0.75;0.20;;;;;;;;;;5032749;28;20072;-68
2021/12/10 14:41:14;;;;;;;0.55;0.20;;;;;;;;;;5032829;28;20029;-68
2021/12/10 14:43:45;;;;;;;0.50;0.10;;;;;;;;;;5032770;28;20017;-68
2021/12/10 14:46:19;;;;;;;0.75;0.17;;;;;;;;;;5032790;28;20100;-68
2021/12/10 14:48:44;;;;;;;;;;;;;;;;;;5033060;28;20025;-68
2021/12/10 14:51:12;;;;;;;0.63;0.13;;;;;;;;;;5032625;28;19959;-67
2021/12/10 14:53:39;;;;;;;0.73;0.17;;;;;;;;;;5032444;28;20020;-68
2021/12/10 14:56:18;;;;;;;0.45;0.10;;;;;;;;;;5032577;28;20064;-68
2021/12/10 14:59:02;;;;;;;0.50;0.20;;;;;;;;;;5032202;28;20358;-68